Time;durP1;ratioP1;P1;durP2;ratioP2;P2;SDS_P1;SDS_P2;PMS_P1;PMS_P2;Temp;Humidity;BMP_temperature;BMP_pressure;BME280_temperature;BME280_humidity;BME280_pressure;Samples;Min_cycle;Max_cycle;Signal;HPM_P1;HPM_P2
2021/01/11 00:01:00;;;;;;;11.85;7.70;;;;;;;-1.46;87.13;97975.39;1679730;85;21235;-63
2021/01/11 00:03:28;;;;;;;9.40;6.10;;;;;;;-1.46;87.13;97975.39;1679965;85;21195;-65
2021/01/11 00:05:57;;;;;;;7.05;4.60;;;;;;;-1.40;86.94;97984.49;1679976;84;21518;-68
2021/01/11 00:08:25;;;;;;;10.72;6.05;;;;;;;-1.37;86.40;97977.54;1680064;85;21301;-64
2021/01/11 00:10:53;;;;;;;9.75;6.22;;;;;;;-1.37;86.82;97979.25;1680173;85;21164;-63
2021/01/11 00:13:23;;;;;;;9.55;5.90;;;;;;;-1.29;86.76;97975.92;1680003;85;21286;-65
2021/01/11 00:15:51;;;;;;;7.17;5.30;;;;;;;-1.26;87.00;97978.31;1679950;85;21143;-63
2021/01/11 00:18:20;;;;;;;7.72;4.92;;;;;;;-1.26;87.00;97978.31;1679913;85;21319;-65
2021/01/11 00:20:48;;;;;;;10.65;6.67;;;;;;;-1.22;86.79;97977.28;1679840;85;21703;-65
2021/01/11 00:23:16;;;;;;;9.43;5.10;;;;;;;-1.28;86.87;97982.64;1680111;85;21401;-65
2021/01/11 00:25:44;;;;;;;7.20;4.97;;;;;;;-1.20;86.60;97995.42;1680045;85;21192;-63
2021/01/11 00:28:12;;;;;;;9.23;5.00;;;;;;;-1.20;86.60;97995.42;1679665;85;21639;-65
2021/01/11 00:30:40;;;;;;;12.53;6.87;;;;;;;-1.04;86.40;97991.28;1679692;85;21318;-64
2021/01/11 00:33:08;;;;;;;8.35;5.62;;;;;;;-1.04;86.40;97991.28;1678809;85;21824;-64
2021/01/11 00:35:36;;;;;;;10.25;7.03;;;;;;;-0.88;90.24;97981.64;1679353;85;21668;-64
2021/01/11 00:38:05;;;;;;;13.25;6.75;;;;;;;-0.57;93.19;97974.19;1679701;85;21726;-64
2021/01/11 00:40:33;;;;;;;10.65;6.67;;;;;;;-0.65;89.11;97965.63;1679905;85;21315;-62
2021/01/11 00:43:03;;;;;;;8.85;5.83;;;;;;;-0.76;86.76;97970.87;1679691;85;21727;-64
2021/01/11 00:45:33;;;;;;;6.72;5.50;;;;;;;-0.75;86.85;97982.73;1680407;85;21275;-65
2021/01/11 00:48:01;;;;;;;8.33;5.37;;;;;;;-0.70;86.81;97980.31;1679799;85;21207;-63
2021/01/11 00:50:30;;;;;;;10.25;5.83;;;;;;;-0.68;86.47;97965.78;1658901;85;21164;-62
2021/01/11 00:52:58;;;;;;;11.43;6.12;;;;;;;-0.65;86.23;97961.80;1677387;85;21184;-65
2021/01/11 00:55:26;;;;;;;9.08;5.10;;;;;;;-0.63;86.06;97952.38;1677682;84;21132;-64
2021/01/11 00:58:00;;;;;;;8.78;6.95;;;;;;;-0.61;85.85;97963.31;1676708;84;21196;-62
2021/01/11 01:00:30;;;;;;;9.93;5.37;;;;;;;-0.65;85.55;97949.50;1677652;85;21588;-64
2021/01/11 01:03:02;;;;;;;9.15;5.90;;;;;;;-0.61;85.51;97954.83;1676058;85;21164;-64
2021/01/11 01:05:30;;;;;;;11.12;6.75;;;;;;;-0.66;85.13;97948.67;1677856;84;21243;-64
2021/01/11 01:08:01;;;;;;;8.60;5.85;;;;;;;-0.70;84.93;97941.27;1677789;84;21191;-65
2021/01/11 01:10:29;;;;;;;11.30;5.25;;;;;;;-0.70;85.01;97947.16;1677353;85;21168;-63
2021/01/11 01:12:57;;;;;;;6.28;5.12;;;;;;;-0.74;84.94;97955.06;1679019;85;21164;-63
2021/01/11 01:15:26;;;;;;;8.00;5.33;;;;;;;-0.73;84.91;97951.14;1678063;85;21681;-62
2021/01/11 01:17:54;;;;;;;6.70;4.42;;;;;;;-0.71;84.85;97929.41;1678424;85;21133;-64
2021/01/11 01:20:22;;;;;;;9.63;6.00;;;;;;;-0.78;84.88;97908.49;1677949;84;21176;-63
2021/01/11 01:22:51;;;;;;;12.33;7.62;;;;;;;-0.88;85.18;97884.77;1677861;85;21713;-64
2021/01/11 01:25:19;;;;;;;9.70;6.80;;;;;;;-1.03;85.89;97883.79;1677951;85;21200;-62
2021/01/11 01:27:47;;;;;;;9.63;6.50;;;;;;;-1.12;86.30;97909.25;1677926;85;21491;-63
2021/01/11 01:30:16;;;;;;;13.43;7.15;;;;;;;-1.26;87.02;97898.06;1677985;85;21196;-64
2021/01/11 01:32:44;;;;;;;11.73;7.17;;;;;;;-1.17;86.58;97917.59;1677561;84;21624;-64
2021/01/11 01:35:34;;;;;;;10.80;6.08;;;;;;;-1.29;86.92;97937.26;1677767;85;21125;-64
2021/01/11 01:38:02;;;;;;;7.85;5.78;;;;;;;-1.20;86.74;97948.28;1677603;84;21133;-64
2021/01/11 01:40:30;;;;;;;7.50;5.28;;;;;;;-1.12;86.36;97952.58;1678205;84;21157;-62
2021/01/11 01:42:58;;;;;;;12.23;5.40;;;;;;;-1.03;86.12;97955.16;1677617;84;21561;-62
2021/01/11 01:45:26;;;;;;;11.55;6.60;;;;;;;-0.97;86.00;97949.75;1644589;85;21172;-62
2021/01/11 01:47:55;;;;;;;7.53;5.33;;;;;;;-0.91;85.80;97955.85;1677552;84;21231;-62
2021/01/11 01:50:23;;;;;;;8.60;5.72;;;;;;;-0.98;85.72;97955.77;1644496;86;21189;-64
2021/01/11 01:52:52;;;;;;;8.18;5.55;;;;;;;-0.96;85.65;97952.69;1677642;85;21177;-69
2021/01/11 01:55:21;;;;;;;9.90;6.22;;;;;;;-0.93;85.57;97942.81;1659098;85;21173;-68
2021/01/11 01:57:53;;;;;;;10.85;4.75;;;;;;;-0.88;85.64;97943.40;1677300;85;21169;-63
2021/01/11 02:00:22;;;;;;;8.43;5.25;;;;;;;-0.85;85.47;97940.25;1677567;85;21232;-62
2021/01/11 02:02:50;;;;;;;9.03;5.17;;;;;;;-0.83;85.48;97946.56;1679682;85;21648;-65
2021/01/11 02:05:19;;;;;;;13.98;6.97;;;;;;;-0.74;85.38;97949.96;1644982;87;21180;-63
2021/01/11 02:08:18;;;;;;;6.85;4.87;;;;;;;-0.77;85.16;97959.01;1677798;84;21156;-64
2021/01/11 02:10:55;;;;;;;8.85;6.08;;;;;;;-0.78;85.13;97935.27;1678003;85;21161;-65
2021/01/11 02:13:34;;;;;;;8.83;5.25;;;;;;;-0.78;85.12;97922.52;1678707;85;21140;-66
2021/01/11 02:16:27;;;;;;;6.42;5.58;;;;;;;-0.80;85.04;97934.50;1677792;84;21215;-64
2021/01/11 02:19:15;;;;;;;9.25;6.20;;;;;;;-0.79;85.14;97928.50;1675261;85;21195;-63
2021/01/11 02:22:07;;;;;;;9.58;5.53;;;;;;;-0.81;85.11;97911.61;1661132;86;21291;-63
2021/01/11 02:24:53;;;;;;;6.10;5.35;;;;;;;-0.81;85.21;97922.64;1660956;86;21187;-68
2021/01/11 02:27:45;;;;;;;9.15;5.50;;;;;;;-0.85;85.43;97930.50;1626993;86;21235;-65
2021/01/11 02:30:24;;;;;;;9.38;5.47;;;;;;;-0.83;85.34;97918.52;1657242;86;21629;-67
2021/01/11 02:32:57;;;;;;;8.90;6.60;;;;;;;-0.79;85.28;97920.86;1658233;85;21600;-65
2021/01/11 02:35:27;;;;;;;7.62;6.08;;;;;;;-0.79;85.28;97920.86;1660429;85;21220;-65
2021/01/11 02:37:58;;;;;;;11.55;5.75;;;;;;;-0.76;85.27;97913.50;1663087;84;21204;-65
2021/01/11 02:40:41;;;;;;;5.58;4.90;;;;;;;-0.91;86.14;97902.77;1668778;86;21180;-65
2021/01/11 02:43:09;;;;;;;9.00;5.97;;;;;;;-1.00;86.52;97895.11;1627413;87;21205;-64
2021/01/11 02:45:40;;;;;;;7.65;4.67;;;;;;;-0.98;86.53;97900.97;1669056;86;21149;-62
2021/01/11 02:48:24;;;;;;;6.17;4.78;;;;;;;-0.95;86.37;97890.63;1627279;87;21669;-63
2021/01/11 02:51:19;;;;;;;9.35;6.42;;;;;;;-0.97;86.50;97888.58;1668941;86;21153;-63
2021/01/11 02:54:04;;;;;;;5.25;3.98;;;;;;;-1.15;87.34;97891.56;1651228;86;21185;-62
2021/01/11 02:56:56;;;;;;;5.22;3.87;;;;;;;-1.12;87.50;97896.95;1685934;84;21124;-63
2021/01/11 02:59:46;;;;;;;5.70;4.17;;;;;;;-1.16;87.49;97898.00;1686312;84;21222;-63
2021/01/11 03:02:17;;;;;;;6.70;4.75;;;;;;;-1.18;87.42;97907.45;1685203;85;21219;-63
2021/01/11 03:04:47;;;;;;;8.80;5.45;;;;;;;-1.21;87.92;97917.35;1685743;85;21163;-63
2021/01/11 03:07:15;;;;;;;7.97;5.12;;;;;;;-1.25;88.16;97927.30;1685885;85;21191;-63
2021/01/11 03:09:45;;;;;;;7.90;3.92;;;;;;;-1.29;88.48;97925.80;1685416;85;21290;-63
2021/01/11 03:12:14;;;;;;;8.48;4.70;;;;;;;-1.25;88.54;97934.12;1685567;85;21209;-62
2021/01/11 03:14:43;;;;;;;6.20;4.05;;;;;;;-1.37;88.60;97934.68;1685464;85;21568;-63
2021/01/11 03:17:11;;;;;;;7.20;4.12;;;;;;;-1.32;88.93;97935.30;1685681;84;21596;-63
2021/01/11 03:19:39;;;;;;;4.78;3.75;;;;;;;-1.30;88.73;97940.69;1685920;85;21187;-64
2021/01/11 03:22:07;;;;;;;5.58;5.08;;;;;;;-1.30;88.55;97934.77;1686006;85;21596;-63
2021/01/11 03:24:36;;;;;;;5.35;4.35;;;;;;;-1.38;88.70;97930.03;1685970;85;21213;-63
2021/01/11 03:27:11;;;;;;;7.28;4.80;;;;;;;-1.26;88.33;97937.55;1686436;85;21134;-63
2021/01/11 03:29:39;;;;;;;5.53;3.87;;;;;;;-1.28;88.41;97932.52;1686345;85;21167;-63
2021/01/11 03:32:07;;;;;;;5.08;3.92;;;;;;;-1.32;88.83;97932.75;1686361;85;21191;-63
2021/01/11 03:34:35;;;;;;;5.95;4.25;;;;;;;-1.25;88.65;97926.03;1686434;85;21159;-63
2021/01/11 03:37:04;;;;;;;15.03;4.25;;;;;;;-1.19;88.35;97914.27;1685854;84;21603;-62
2021/01/11 03:39:32;;;;;;;6.17;3.25;;;;;;;-1.22;88.58;97908.05;1686781;85;21215;-63
2021/01/11 03:42:00;;;;;;;4.50;4.10;;;;;;;-1.17;88.22;97907.84;1688830;85;21694;-65
2021/01/11 03:44:28;;;;;;;8.03;5.08;;;;;;;-1.19;88.00;97907.07;1688676;84;21751;-63
2021/01/11 03:46:56;;;;;;;5.15;4.20;;;;;;;-1.10;87.83;97906.64;1688545;85;21325;-63
2021/01/11 03:49:28;;;;;;;8.20;4.50;;;;;;;-1.13;87.77;97910.14;1688790;85;21167;-64
2021/01/11 03:52:07;;;;;;;8.48;5.20;;;;;;;-1.10;87.62;97899.83;1688862;84;21167;-63
2021/01/11 03:54:36;;;;;;;6.47;3.15;;;;;;;-1.06;87.64;97880.95;1688727;84;21171;-62
2021/01/11 03:57:04;;;;;;;4.87;3.08;;;;;;;-1.07;87.31;97879.73;1689079;84;21569;-64
2021/01/11 03:59:32;;;;;;;3.77;3.45;;;;;;;-1.05;86.98;97879.23;1688596;85;21630;-65
2021/01/11 04:02:01;;;;;;;5.20;3.37;;;;;;;-1.10;87.17;97888.81;1688382;84;21167;-64
2021/01/11 04:04:29;;;;;;;6.90;4.30;;;;;;;-1.17;87.19;97878.09;1688468;84;21321;-64
2021/01/11 04:06:57;;;;;;;7.35;5.53;;;;;;;-1.15;87.34;97883.09;1689049;84;21493;-64
2021/01/11 04:09:25;;;;;;;4.75;3.72;;;;;;;-1.16;87.30;97872.08;1688154;85;21154;-64
2021/01/11 04:11:54;;;;;;;7.00;5.03;;;;;;;-1.19;87.94;97881.59;1688483;83;21606;-64
2021/01/11 04:14:22;;;;;;;5.37;3.00;;;;;;;-1.22;87.67;97874.09;1688750;84;21159;-64
2021/01/11 04:16:54;;;;;;;7.22;4.22;;;;;;;-1.16;87.30;97871.25;1688942;85;21917;-64
2021/01/11 04:19:22;;;;;;;7.75;4.05;;;;;;;-1.21;87.49;97865.13;1688641;85;21160;-64
2021/01/11 04:21:50;;;;;;;5.30;4.17;;;;;;;-1.21;87.49;97865.13;1688747;85;21181;-64
2021/01/11 04:24:19;;;;;;;4.80;3.83;;;;;;;-1.15;87.90;97862.71;1688845;84;21124;-64
2021/01/11 04:26:47;;;;;;;8.75;4.85;;;;;;;-1.10;87.79;97870.52;1688413;84;21196;-64
2021/01/11 04:29:15;;;;;;;7.03;4.08;;;;;;;-1.14;87.58;97872.84;1688688;83;21179;-64
2021/01/11 04:32:05;;;;;;;6.30;4.67;;;;;;;-1.09;87.46;97882.83;1688967;84;21159;-64
2021/01/11 04:34:33;;;;;;;8.38;4.05;;;;;;;-1.10;87.35;97889.64;1686269;84;21225;-64
2021/01/11 04:37:02;;;;;;;7.00;3.60;;;;;;;-1.12;87.98;97896.95;1686211;84;21216;-64
2021/01/11 04:39:31;;;;;;;7.40;5.33;;;;;;;-1.06;87.54;97882.22;1676547;85;21209;-64
2021/01/11 04:42:03;;;;;;;8.08;6.12;;;;;;;-0.97;87.22;97886.86;1686173;84;21528;-64
2021/01/11 04:44:33;;;;;;;9.18;5.03;;;;;;;-1.02;86.99;97877.80;1685291;84;21196;-64
2021/01/11 04:47:01;;;;;;;8.48;5.25;;;;;;;-0.82;86.75;97908.27;1685865;84;21224;-65
2021/01/11 04:49:30;;;;;;;11.10;6.35;;;;;;;-0.82;86.38;97887.87;1686179;84;21215;-64
2021/01/11 04:52:00;;;;;;;9.30;4.72;;;;;;;-0.81;86.16;97889.49;1685586;83;21141;-64
2021/01/11 04:54:32;;;;;;;5.00;3.72;;;;;;;-0.76;85.86;97891.38;1677430;85;21192;-68
2021/01/11 04:57:03;;;;;;;8.60;5.80;;;;;;;-0.73;86.10;97879.75;1677532;85;21177;-65
2021/01/11 04:59:34;;;;;;;9.48;5.47;;;;;;;-0.68;85.78;97859.13;1685941;84;21189;-64
2021/01/11 05:02:04;;;;;;;5.50;4.70;;;;;;;-0.68;85.78;97859.13;1686744;84;21164;-64
2021/01/11 05:04:33;;;;;;;16.17;5.70;;;;;;;-0.65;85.68;97856.42;1700904;84;21232;-63
2021/01/11 05:07:03;;;;;;;11.48;6.28;;;;;;;-0.62;85.67;97854.98;1686602;84;21204;-64
2021/01/11 05:09:31;;;;;;;10.80;7.17;;;;;;;-0.60;85.57;97854.03;1686359;85;21205;-64
2021/01/11 05:12:01;;;;;;;13.75;7.20;;;;;;;-0.58;85.42;97857.31;1686113;84;21137;-69
2021/01/11 05:14:31;;;;;;;8.18;5.62;;;;;;;-0.61;85.33;97853.64;1686230;85;21216;-64
2021/01/11 05:17:05;;;;;;;7.90;5.62;;;;;;;-0.55;85.15;97855.91;1685923;85;21212;-65
2021/01/11 05:19:33;;;;;;;9.68;5.58;;;;;;;-0.55;85.04;97860.18;1685736;84;21172;-63
2021/01/11 05:22:02;;;;;;;8.68;5.65;;;;;;;-0.60;85.16;97869.33;1686300;85;21161;-64
2021/01/11 05:24:37;;;;;;;7.72;4.12;;;;;;;-0.57;85.27;97877.27;1685826;85;21233;-64
2021/01/11 05:27:08;;;;;;;7.35;4.83;;;;;;;-0.57;85.27;97877.27;1686224;84;21148;-64
2021/01/11 05:29:39;;;;;;;10.80;5.67;;;;;;;-0.63;85.22;97873.77;1685428;84;21212;-64
2021/01/11 05:32:32;;;;;;;6.65;4.80;;;;;;;-0.63;85.22;97873.77;1707280;84;21270;-64
2021/01/11 05:35:03;;;;;;;6.25;4.28;;;;;;;-0.63;85.38;97882.23;1686287;85;21164;-64
2021/01/11 05:37:35;;;;;;;7.25;4.67;;;;;;;-0.72;85.57;97881.85;1686318;84;21133;-64
2021/01/11 05:40:16;;;;;;;6.35;4.45;;;;;;;-0.72;85.57;97881.85;1687081;84;21578;-63
2021/01/11 05:42:58;;;;;;;14.03;6.47;;;;;;;-0.65;86.36;97885.30;1686990;84;21197;-65
2021/01/11 05:45:33;;;;;;;7.03;5.03;;;;;;;-0.62;86.40;97881.76;1779918;79;23157;-64
2021/01/11 05:48:13;;;;;;;7.53;4.10;;;;;;;-0.63;86.32;97894.99;1753223;81;21138;-64
2021/01/11 05:50:48;;;;;;;10.63;4.65;;;;;;;-0.63;86.32;97894.99;1752928;82;21156;-64
2021/01/11 05:53:22;;;;;;;8.98;4.22;;;;;;;-0.61;86.35;97902.55;1753011;81;21212;-70
2021/01/11 05:55:53;;;;;;;9.10;5.05;;;;;;;-0.68;86.99;97903.75;1753102;81;21152;-64
2021/01/11 05:58:29;;;;;;;11.95;6.10;;;;;;;-0.71;86.72;97907.29;1753248;82;21208;-64
2021/01/11 06:00:56;;;;;;;8.13;4.55;;;;;;;-0.67;86.63;97906.69;1748567;81;21168;-64
2021/01/11 06:03:24;;;;;;;19.77;5.03;;;;;;;-0.61;86.62;97912.30;1753136;82;21171;-64
2021/01/11 06:05:53;;;;;;;6.55;4.75;;;;;;;-0.56;86.49;97915.91;1753359;81;21265;-63
2021/01/11 06:08:22;;;;;;;8.18;5.50;;;;;;;-0.50;86.42;97918.14;1744603;81;21155;-63
2021/01/11 06:10:53;;;;;;;7.87;6.62;;;;;;;-0.43;86.33;97914.86;1753145;81;21576;-62
2021/01/11 06:13:46;;;;;;;8.65;6.28;;;;;;;-0.39;86.09;97907.43;1752787;82;21625;-63
2021/01/11 06:16:16;;;;;;;9.78;4.95;;;;;;;-0.35;85.89;97906.38;1710348;84;21333;-64
2021/01/11 06:18:49;;;;;;;9.83;5.75;;;;;;;-0.32;85.80;97913.42;1710538;84;21559;-63
2021/01/11 06:21:22;;;;;;;8.30;5.37;;;;;;;-0.33;85.78;97908.38;1710824;84;21744;-64
2021/01/11 06:24:17;;;;;;;10.15;6.20;;;;;;;-0.30;85.62;97907.77;1710629;84;21139;-66
2021/01/11 06:26:47;;;;;;;6.17;3.55;;;;;;;-0.38;86.04;97909.88;1710578;84;21598;-64
2021/01/11 06:29:33;;;;;;;6.60;4.55;;;;;;;-0.37;86.16;97908.98;1710321;84;21304;-64
2021/01/11 06:32:23;;;;;;;12.70;6.80;;;;;;;-0.42;86.54;97919.87;1710393;84;21124;-64
2021/01/11 06:38:33;;;;;;;10.08;5.60;;;;;;;-0.48;86.72;97934.21;1679731;85;21140;-63
2021/01/11 06:44:41;;;;;;;8.53;6.40;;;;;;;-0.40;86.66;97932.56;1673353;86;21149;-63
2021/01/11 06:47:30;;;;;;;12.00;6.65;;;;;;;-0.34;86.61;97938.62;1648375;86;21671;-63
2021/01/11 06:50:09;;;;;;;10.53;5.33;;;;;;;-0.31;86.53;97944.88;1699069;83;21188;-65
2021/01/11 06:52:39;;;;;;;12.33;8.25;;;;;;;-0.29;86.48;97944.33;1709289;82;21211;-67
2021/01/11 06:58:01;;;;;;;10.88;6.87;;;;;;;-0.63;89.06;97943.89;1677800;84;21621;-67
2021/01/11 07:00:58;;;;;;;11.45;7.37;;;;;;;-0.64;89.59;97949.44;1676399;83;21219;-65
2021/01/11 07:03:49;;;;;;;9.00;6.05;;;;;;;-0.68;90.16;97955.58;1730117;82;21581;-65
2021/01/11 07:06:55;;;;;;;5.85;4.05;;;;;;;-0.65;91.37;97967.35;1730371;82;21268;-65
2021/01/11 07:09:23;;;;;;;11.68;5.97;;;;;;;-0.65;91.37;97967.35;1691017;85;21254;-65
2021/01/11 07:11:52;;;;;;;6.62;5.65;;;;;;;-0.57;90.46;97967.36;1687258;85;21581;-66
2021/01/11 07:14:23;;;;;;;11.88;6.22;;;;;;;-0.47;90.18;97961.38;1681809;84;21172;-67
2021/01/11 07:16:54;;;;;;;8.15;4.55;;;;;;;-0.44;89.97;97958.67;1684004;83;21581;-66
2021/01/11 07:19:42;;;;;;;8.85;5.70;;;;;;;-0.33;89.81;97964.07;1715032;83;21206;-67
2021/01/11 07:22:11;;;;;;;10.30;7.05;;;;;;;-0.17;89.34;97974.34;1701011;84;21163;-67
2021/01/11 07:24:41;;;;;;;7.17;5.08;;;;;;;-0.13;89.51;97977.12;1710584;84;21156;-65
2021/01/11 07:27:10;;;;;;;7.92;5.85;;;;;;;0.02;88.70;97979.34;1711968;84;21169;-65
2021/01/11 07:29:38;;;;;;;7.45;5.60;;;;;;;0.16;88.31;97984.13;1711711;84;21759;-65
2021/01/11 07:32:07;;;;;;;6.45;4.75;;;;;;;0.26;87.79;97982.77;1699344;83;21140;-64
2021/01/11 07:34:35;;;;;;;5.85;4.33;;;;;;;0.34;87.32;97983.64;1681923;85;21551;-68
2021/01/11 07:37:03;;;;;;;5.97;3.62;;;;;;;0.43;86.90;97982.70;1681725;85;21184;-65
2021/01/11 07:39:36;;;;;;;6.87;4.80;;;;;;;0.38;86.45;97982.14;1678401;85;21630;-66
2021/01/11 07:42:06;;;;;;;9.68;5.83;;;;;;;0.46;86.65;97983.02;1637063;87;21160;-66
2021/01/11 07:44:38;;;;;;;12.05;6.75;;;;;;;0.49;86.30;97986.68;1611305;88;21175;-65
2021/01/11 07:47:14;;;;;;;13.50;6.05;;;;;;;0.50;86.10;97976.84;1637198;88;21213;-65
2021/01/11 07:49:51;;;;;;;9.48;5.87;;;;;;;0.52;86.86;97979.30;1637232;88;21213;-65
2021/01/11 07:52:21;;;;;;;10.85;6.58;;;;;;;0.70;86.40;97976.59;1639823;85;21155;-65
2021/01/11 07:55:20;;;;;;;11.88;6.20;;;;;;;0.42;85.94;97977.24;1675825;85;21252;-64
2021/01/11 07:57:49;;;;;;;9.08;6.08;;;;;;;0.57;86.02;97983.27;1645293;86;21153;-65
2021/01/11 08:00:39;;;;;;;9.90;6.33;;;;;;;0.43;86.77;97991.64;1666812;86;21600;-65
2021/01/11 08:03:08;;;;;;;5.65;4.53;;;;;;;0.42;86.35;97986.63;1651630;85;21590;-64
2021/01/11 08:05:37;;;;;;;8.33;5.28;;;;;;;0.46;86.09;97988.95;1651805;85;21172;-64
2021/01/11 08:08:06;;;;;;;7.17;5.12;;;;;;;0.48;86.80;97984.58;1651837;85;21190;-64
2021/01/11 08:10:36;;;;;;;15.63;5.25;;;;;;;0.52;86.77;97986.96;1651872;85;21246;-65
2021/01/11 08:13:08;;;;;;;8.50;5.50;;;;;;;0.60;85.73;97993.77;1668506;86;21194;-65
2021/01/11 08:15:38;;;;;;;15.25;6.55;;;;;;;0.69;86.22;97994.58;1645996;86;21126;-64
2021/01/11 08:18:09;;;;;;;9.35;5.53;;;;;;;0.46;86.19;98000.90;1668326;86;21745;-64
2021/01/11 08:20:37;;;;;;;11.48;6.40;;;;;;;0.68;86.42;97999.31;1668314;84;21612;-64
2021/01/11 08:23:32;;;;;;;8.48;5.17;;;;;;;0.72;85.99;97996.52;1668382;85;21318;-64
2021/01/11 08:26:30;;;;;;;8.63;5.28;;;;;;;0.77;85.41;97997.55;1674739;85;21256;-65
2021/01/11 08:29:00;;;;;;;8.93;6.37;;;;;;;0.84;85.59;98007.83;1678406;84;21345;-64
2021/01/11 08:31:30;;;;;;;13.43;7.05;;;;;;;0.74;85.03;98015.62;1645107;86;21584;-64
2021/01/11 08:33:59;;;;;;;12.35;7.78;;;;;;;0.60;86.66;98021.89;1645161;87;21725;-65
2021/01/11 08:36:30;;;;;;;14.58;8.48;;;;;;;0.62;86.43;98027.76;1645118;86;21195;-65
2021/01/11 08:39:31;;;;;;;8.70;5.58;;;;;;;0.72;85.64;98025.08;1645236;85;21314;-64
2021/01/11 08:41:59;;;;;;;13.88;8.13;;;;;;;0.73;85.21;98026.30;1673927;84;21179;-64
2021/01/11 08:44:33;;;;;;;24.92;12.28;;;;;;;0.78;84.96;98018.36;1705643;84;21147;-64
2021/01/11 08:47:08;;;;;;;18.92;8.43;;;;;;;0.79;85.46;98023.84;1705990;84;21324;-63
2021/01/11 08:50:01;;;;;;;12.03;8.05;;;;;;;0.87;85.40;98028.10;1705870;84;21300;-63
2021/01/11 08:52:36;;;;;;;9.40;5.17;;;;;;;0.85;85.74;98030.76;1705894;84;21182;-64
2021/01/11 08:55:30;;;;;;;8.35;4.60;;;;;;;0.85;85.65;98029.48;1705998;84;23035;-64
2021/01/11 08:57:59;;;;;;;5.60;4.25;;;;;;;0.85;85.61;98031.21;1729384;83;21623;-65
2021/01/11 09:00:28;;;;;;;4.35;3.62;;;;;;;0.87;84.88;98027.66;1727390;83;21227;-71
2021/01/11 09:02:56;;;;;;;6.10;4.15;;;;;;;0.88;85.84;98029.77;1729562;81;21646;-65
2021/01/11 09:05:26;;;;;;;6.87;4.55;;;;;;;0.66;86.45;98035.16;1729564;82;21594;-64
2021/01/11 09:07:54;;;;;;;9.15;5.08;;;;;;;0.77;86.27;98041.02;1735894;82;21159;-64
2021/01/11 09:10:32;;;;;;;6.08;4.47;;;;;;;0.80;86.68;98039.12;1729504;81;21137;-65
2021/01/11 09:13:19;;;;;;;3.60;3.08;;;;;;;0.82;86.10;98030.90;1729479;83;21659;-65
2021/01/11 09:15:47;;;;;;;;;;;;;;;0.94;85.41;98025.59;1732062;83;21207;-66
2021/01/11 09:18:18;;;;;;;6.85;3.90;;;;;;;1.13;85.16;98029.29;1694837;84;20288;-65
2021/01/11 09:20:47;;;;;;;6.72;4.40;;;;;;;1.14;84.50;98025.80;1694736;84;21622;-63
2021/01/11 09:23:15;;;;;;;8.53;5.75;;;;;;;1.14;85.02;98027.91;1672306;86;21258;-65
2021/01/11 09:25:49;;;;;;;11.35;5.25;;;;;;;1.14;84.60;98037.31;1694793;85;21175;-65
2021/01/11 09:28:13;;;;;;;3.30;3.00;;;;;;;1.27;84.82;98039.13;1694537;85;21172;-65
2021/01/11 09:30:41;;;;;;;6.15;5.12;;;;;;;1.41;84.39;98037.91;1672098;84;21176;-64
2021/01/11 09:33:10;;;;;;;4.62;3.72;;;;;;;1.22;84.30;98035.99;1694607;84;21175;-64
2021/01/11 09:35:39;;;;;;;9.33;5.90;;;;;;;1.16;84.84;98043.18;1694621;84;21155;-65
2021/01/11 09:38:07;;;;;;;14.85;4.62;;;;;;;1.26;84.02;98045.60;1672540;85;21223;-66
2021/01/11 09:40:37;;;;;;;6.87;3.98;;;;;;;1.21;84.46;98043.28;1694738;83;21591;-64
2021/01/11 09:43:06;;;;;;;7.22;5.08;;;;;;;1.14;85.28;98044.98;1697500;84;21156;-65
2021/01/11 09:45:34;;;;;;;8.85;4.65;;;;;;;1.15;84.98;98038.52;1682632;84;21226;-65
2021/01/11 09:48:05;;;;;;;6.62;5.00;;;;;;;1.24;84.58;98038.48;1694700;83;21540;-64
2021/01/11 09:50:33;;;;;;;6.60;4.53;;;;;;;1.20;84.30;98040.38;1672089;86;21239;-65
2021/01/11 09:53:05;;;;;;;13.05;5.30;;;;;;;1.27;84.32;98035.30;1694679;83;21668;-65
2021/01/11 09:55:36;;;;;;;7.50;5.12;;;;;;;1.27;84.35;98039.59;1672095;86;21615;-64
2021/01/11 09:58:09;;;;;;;8.78;5.62;;;;;;;1.20;84.31;98040.83;1689901;84;21616;-67
2021/01/11 10:00:38;;;;;;;9.40;5.30;;;;;;;1.10;85.30;98037.10;1686393;83;21203;-65
2021/01/11 10:03:07;;;;;;;7.78;4.97;;;;;;;1.14;85.23;98032.19;1686134;85;21164;-64
2021/01/11 10:05:37;;;;;;;6.33;5.65;;;;;;;1.23;84.81;98035.09;1686427;84;21651;-65
2021/01/11 10:08:06;;;;;;;6.75;4.15;;;;;;;1.17;85.09;98034.13;1685863;84;21660;-65
2021/01/11 10:10:34;;;;;;;5.33;3.65;;;;;;;1.09;85.34;98032.44;1686912;85;21250;-64
2021/01/11 10:13:03;;;;;;;9.48;4.47;;;;;;;1.19;85.12;98025.94;1686944;84;21676;-64
2021/01/11 10:15:31;;;;;;;6.90;4.47;;;;;;;1.00;85.42;98026.55;1686729;83;21235;-64
2021/01/11 10:17:59;;;;;;;8.13;4.62;;;;;;;1.09;85.56;98027.80;1686563;85;21660;-64
2021/01/11 10:20:27;;;;;;;8.78;5.83;;;;;;;1.06;85.40;98026.21;1683999;85;21321;-67
2021/01/11 10:22:55;;;;;;;8.18;4.75;;;;;;;0.96;85.53;98026.34;1721087;82;21789;-64
2021/01/11 10:25:23;;;;;;;8.13;4.55;;;;;;;1.06;85.47;98029.22;1712402;82;21158;-64
2021/01/11 10:27:54;;;;;;;7.60;4.20;;;;;;;1.13;85.06;98030.08;1705897;82;21166;-65
2021/01/11 10:30:22;;;;;;;5.00;3.95;;;;;;;1.14;85.32;98036.03;1706201;82;21162;-64
2021/01/11 10:32:50;;;;;;;4.65;3.70;;;;;;;1.15;85.45;98027.01;1713546;82;21286;-64
2021/01/11 10:35:19;;;;;;;5.20;4.00;;;;;;;1.13;85.18;98030.56;1721635;82;21200;-65
2021/01/11 10:40:29;;;;;;;5.25;3.92;;;;;;;0.98;86.00;98021.13;1751269;80;21176;-65
2021/01/11 10:42:57;;;;;;;7.47;3.62;;;;;;;0.89;86.23;98023.75;1750867;82;21157;-65
2021/01/11 10:45:25;;;;;;;5.80;2.83;;;;;;;0.98;86.08;98019.41;1769722;80;21148;-65
2021/01/11 10:47:54;;;;;;;5.05;4.00;;;;;;;1.14;85.08;98016.84;1774606;80;21445;-70
2021/01/11 10:50:23;;;;;;;8.18;2.98;;;;;;;1.11;85.52;98014.46;1751410;81;21699;-65
2021/01/11 10:52:51;;;;;;;7.85;3.90;;;;;;;1.12;84.95;98014.84;1751105;82;21591;-66
2021/01/11 10:55:19;;;;;;;6.95;4.67;;;;;;;1.11;85.63;98008.07;1745139;82;21129;-69
2021/01/11 10:57:49;;;;;;;10.18;3.62;;;;;;;1.08;85.96;98014.19;1744988;82;21314;-65
2021/01/11 11:00:21;;;;;;;6.75;3.98;;;;;;;1.06;86.02;98012.15;1764424;80;21518;-65
2021/01/11 11:02:49;;;;;;;7.45;4.45;;;;;;;1.10;85.10;98003.41;1753576;80;21417;-64
2021/01/11 11:05:17;;;;;;;3.98;3.47;;;;;;;1.11;85.25;97996.11;1751280;82;21172;-67
2021/01/11 11:07:45;;;;;;;7.17;4.20;;;;;;;1.25;84.87;97995.34;1751638;82;21549;-65
2021/01/11 11:10:14;;;;;;;10.50;4.35;;;;;;;1.12;85.10;97999.50;1751801;81;21171;-65
2021/01/11 11:12:42;;;;;;;5.97;4.17;;;;;;;1.02;85.29;97997.88;1751663;82;21183;-68
2021/01/11 11:15:13;;;;;;;5.10;4.03;;;;;;;0.92;86.08;97992.90;1751752;81;21581;-66
2021/01/11 11:17:41;;;;;;;7.97;5.08;;;;;;;1.06;85.64;97986.58;1751595;82;21155;-66
2021/01/11 11:20:31;;;;;;;5.17;4.33;;;;;;;1.05;85.64;97986.20;1751604;82;21149;-66
2021/01/11 11:23:00;;;;;;;13.20;3.98;;;;;;;1.09;85.40;97983.84;1657081;85;21240;-66
2021/01/11 11:25:28;;;;;;;10.75;4.80;;;;;;;1.03;85.26;97980.36;1657018;85;21197;-65
2021/01/11 11:27:56;;;;;;;5.40;3.52;;;;;;;1.01;85.23;97977.52;1656923;85;21299;-63
2021/01/11 11:30:25;;;;;;;13.93;5.72;;;;;;;1.10;85.50;97969.33;1656799;85;21170;-63
2021/01/11 11:32:53;;;;;;;6.37;4.37;;;;;;;0.98;85.56;97964.88;1656690;86;21695;-65
2021/01/11 11:35:22;;;;;;;6.72;3.45;;;;;;;0.92;86.31;97960.94;1656847;85;21160;-66
2021/01/11 11:37:51;;;;;;;11.38;4.25;;;;;;;0.93;85.81;97967.23;1656652;85;21756;-66
2021/01/11 11:40:19;;;;;;;3.87;2.77;;;;;;;0.89;85.48;97967.05;1673281;84;21203;-65
2021/01/11 11:42:48;;;;;;;4.40;3.67;;;;;;;1.03;85.42;97969.30;1665901;85;21218;-65
2021/01/11 11:45:18;;;;;;;4.80;4.08;;;;;;;1.07;85.02;97966.50;1684269;85;21342;-65
2021/01/11 11:47:46;;;;;;;3.87;3.27;;;;;;;1.10;85.30;97957.82;1684252;85;21357;-65
2021/01/11 11:50:16;;;;;;;13.15;3.80;;;;;;;1.13;85.54;97956.39;1684370;85;21171;-65
2021/01/11 11:52:44;;;;;;;5.15;4.55;;;;;;;0.99;85.63;97946.08;1684579;85;21199;-67
2021/01/11 11:55:34;;;;;;;12.93;4.70;;;;;;;1.04;85.80;97942.37;1684107;85;21758;-65
2021/01/11 11:58:05;;;;;;;6.22;3.70;;;;;;;1.03;85.98;97941.17;1649512;86;21193;-65
2021/01/11 12:00:33;;;;;;;11.78;3.15;;;;;;;1.19;85.36;97941.52;1640659;86;21200;-66
2021/01/11 12:03:04;;;;;;;8.20;3.95;;;;;;;1.26;84.85;97935.15;1639957;87;21255;-65
2021/01/11 12:05:32;;;;;;;7.90;5.45;;;;;;;1.31;84.49;97938.28;1639177;87;21240;-65
2021/01/11 12:08:00;;;;;;;5.92;3.58;;;;;;;1.21;85.84;97942.25;1639436;87;21798;-65
2021/01/11 12:10:30;;;;;;;4.72;2.98;;;;;;;1.33;84.81;97937.73;1639599;87;21221;-67